sensor_id;sensor_type;location;lat;lon;timestamp;P1;durP1;ratioP1;P2;durP2;ratioP2
13435;SDS011;6790;49.520;8.504;2023-07-09T00:00:03;9.43;;;5.18;;
13435;SDS011;6790;49.520;8.504;2023-07-09T00:02:36;8.48;;;4.75;;
13435;SDS011;6790;49.520;8.504;2023-07-09T00:05:02;7.88;;;5.20;;
13435;SDS011;6790;49.520;8.504;2023-07-09T00:07:28;8.75;;;5.13;;
13435;SDS011;6790;49.520;8.504;2023-07-09T00:09:58;7.45;;;4.68;;
13435;SDS011;6790;49.520;8.504;2023-07-09T00:12:24;9.43;;;5.28;;
13435;SDS011;6790;49.520;8.504;2023-07-09T00:14:51;8.65;;;5.03;;
13435;SDS011;6790;49.520;8.504;2023-07-09T00:17:26;7.82;;;4.95;;
13435;SDS011;6790;49.520;8.504;2023-07-09T00:19:56;5.95;;;4.57;;
13435;SDS011;6790;49.520;8.504;2023-07-09T00:22:22;9.40;;;5.32;;
13435;SDS011;6790;49.520;8.504;2023-07-09T00:24:50;6.75;;;5.13;;
13435;SDS011;6790;49.520;8.504;2023-07-09T00:27:16;10.10;;;4.95;;
13435;SDS011;6790;49.520;8.504;2023-07-09T00:29:44;8.43;;;5.15;;
13435;SDS011;6790;49.520;8.504;2023-07-09T00:32:15;7.53;;;5.35;;
13435;SDS011;6790;49.520;8.504;2023-07-09T00:34:45;6.60;;;5.68;;
13435;SDS011;6790;49.520;8.504;2023-07-09T00:37:21;10.88;;;5.93;;
13435;SDS011;6790;49.520;8.504;2023-07-09T00:39:52;7.03;;;4.83;;
13435;SDS011;6790;49.520;8.504;2023-07-09T00:42:18;6.15;;;5.03;;
13435;SDS011;6790;49.520;8.504;2023-07-09T00:44:55;8.97;;;5.27;;
13435;SDS011;6790;49.520;8.504;2023-07-09T00:47:22;7.88;;;5.13;;
13435;SDS011;6790;49.520;8.504;2023-07-09T00:50:02;7.55;;;5.15;;
13435;SDS011;6790;49.520;8.504;2023-07-09T00:52:36;7.25;;;5.18;;
13435;SDS011;6790;49.520;8.504;2023-07-09T00:55:11;6.53;;;5.18;;
13435;SDS011;6790;49.520;8.504;2023-07-09T00:57:41;6.88;;;5.20;;
13435;SDS011;6790;49.520;8.504;2023-07-09T01:00:20;8.77;;;5.55;;
13435;SDS011;6790;49.520;8.504;2023-07-09T01:02:53;7.93;;;5.53;;
13435;SDS011;6790;49.520;8.504;2023-07-09T01:05:19;8.65;;;5.57;;
13435;SDS011;6790;49.520;8.504;2023-07-09T01:07:46;8.88;;;5.57;;
13435;SDS011;6790;49.520;8.504;2023-07-09T01:10:14;7.38;;;5.35;;
13435;SDS011;6790;49.520;8.504;2023-07-09T01:12:42;8.63;;;5.47;;
13435;SDS011;6790;49.520;8.504;2023-07-09T01:15:09;6.30;;;5.07;;
13435;SDS011;6790;49.520;8.504;2023-07-09T01:17:36;6.90;;;5.30;;
13435;SDS011;6790;49.520;8.504;2023-07-09T01:20:02;6.07;;;4.80;;
13435;SDS011;6790;49.520;8.504;2023-07-09T01:22:28;7.53;;;5.18;;
13435;SDS011;6790;49.520;8.504;2023-07-09T01:27:38;9.70;;;5.10;;
13435;SDS011;6790;49.520;8.504;2023-07-09T01:30:24;8.43;;;5.07;;
13435;SDS011;6790;49.520;8.504;2023-07-09T01:32:58;6.03;;;5.43;;
13435;SDS011;6790;49.520;8.504;2023-07-09T01:35:26;5.82;;;5.20;;
13435;SDS011;6790;49.520;8.504;2023-07-09T01:37:56;9.13;;;5.53;;
13435;SDS011;6790;49.520;8.504;2023-07-09T01:40:23;9.70;;;5.67;;
13435;SDS011;6790;49.520;8.504;2023-07-09T01:42:52;6.30;;;5.07;;
13435;SDS011;6790;49.520;8.504;2023-07-09T01:45:20;8.03;;;5.50;;
13435;SDS011;6790;49.520;8.504;2023-07-09T01:47:47;8.53;;;5.60;;
13435;SDS011;6790;49.520;8.504;2023-07-09T01:50:13;7.82;;;5.30;;
13435;SDS011;6790;49.520;8.504;2023-07-09T01:52:41;9.20;;;5.30;;
13435;SDS011;6790;49.520;8.504;2023-07-09T01:55:09;5.70;;;5.10;;
13435;SDS011;6790;49.520;8.504;2023-07-09T01:57:37;7.63;;;5.27;;
13435;SDS011;6790;49.520;8.504;2023-07-09T02:00:07;8.77;;;5.60;;
13435;SDS011;6790;49.520;8.504;2023-07-09T02:02:36;6.77;;;5.40;;
13435;SDS011;6790;49.520;8.504;2023-07-09T02:05:04;8.17;;;5.73;;
13435;SDS011;6790;49.520;8.504;2023-07-09T02:07:30;7.70;;;5.37;;
13435;SDS011;6790;49.520;8.504;2023-07-09T02:09:57;7.13;;;5.32;;
13435;SDS011;6790;49.520;8.504;2023-07-09T02:12:23;7.40;;;5.82;;
13435;SDS011;6790;49.520;8.504;2023-07-09T02:14:49;6.60;;;5.68;;
13435;SDS011;6790;49.520;8.504;2023-07-09T02:17:15;10.07;;;5.67;;
13435;SDS011;6790;49.520;8.504;2023-07-09T02:19:42;9.57;;;5.70;;
13435;SDS011;6790;49.520;8.504;2023-07-09T02:22:08;6.17;;;5.57;;
13435;SDS011;6790;49.520;8.504;2023-07-09T02:24:35;6.00;;;4.87;;
13435;SDS011;6790;49.520;8.504;2023-07-09T02:27:02;6.03;;;5.40;;
13435;SDS011;6790;49.520;8.504;2023-07-09T02:29:30;6.80;;;5.07;;
13435;SDS011;6790;49.520;8.504;2023-07-09T02:31:57;6.97;;;5.97;;
13435;SDS011;6790;49.520;8.504;2023-07-09T02:34:25;7.88;;;6.03;;
13435;SDS011;6790;49.520;8.504;2023-07-09T02:36:52;8.90;;;5.80;;
13435;SDS011;6790;49.520;8.504;2023-07-09T02:39:18;9.67;;;5.87;;
13435;SDS011;6790;49.520;8.504;2023-07-09T02:41:44;9.00;;;5.60;;
13435;SDS011;6790;49.520;8.504;2023-07-09T02:44:10;7.13;;;5.20;;
13435;SDS011;6790;49.520;8.504;2023-07-09T02:46:36;6.93;;;5.80;;
13435;SDS011;6790;49.520;8.504;2023-07-09T02:49:05;6.83;;;5.53;;
13435;SDS011;6790;49.520;8.504;2023-07-09T02:51:33;7.70;;;5.63;;
13435;SDS011;6790;49.520;8.504;2023-07-09T02:53:59;7.73;;;6.07;;
13435;SDS011;6790;49.520;8.504;2023-07-09T02:56:27;8.80;;;6.03;;
13435;SDS011;6790;49.520;8.504;2023-07-09T02:58:54;7.97;;;5.47;;
13435;SDS011;6790;49.520;8.504;2023-07-09T03:01:20;9.23;;;5.57;;
13435;SDS011;6790;49.520;8.504;2023-07-09T03:03:52;7.43;;;5.50;;
13435;SDS011;6790;49.520;8.504;2023-07-09T03:06:21;7.03;;;5.83;;
13435;SDS011;6790;49.520;8.504;2023-07-09T03:08:49;8.40;;;5.67;;
13435;SDS011;6790;49.520;8.504;2023-07-09T03:11:16;7.90;;;5.13;;
13435;SDS011;6790;49.520;8.504;2023-07-09T03:13:43;7.83;;;5.47;;
13435;SDS011;6790;49.520;8.504;2023-07-09T03:16:09;8.73;;;5.30;;
13435;SDS011;6790;49.520;8.504;2023-07-09T03:18:34;7.77;;;5.43;;
13435;SDS011;6790;49.520;8.504;2023-07-09T03:21:00;6.70;;;5.13;;
13435;SDS011;6790;49.520;8.504;2023-07-09T03:23:26;5.90;;;5.00;;
13435;SDS011;6790;49.520;8.504;2023-07-09T03:25:52;7.70;;;5.50;;
13435;SDS011;6790;49.520;8.504;2023-07-09T03:28:18;6.90;;;5.47;;
13435;SDS011;6790;49.520;8.504;2023-07-09T03:30:47;9.00;;;5.50;;
13435;SDS011;6790;49.520;8.504;2023-07-09T03:33:14;6.10;;;5.50;;
13435;SDS011;6790;49.520;8.504;2023-07-09T03:35:41;7.43;;;5.47;;
13435;SDS011;6790;49.520;8.504;2023-07-09T03:38:08;7.17;;;5.43;;
13435;SDS011;6790;49.520;8.504;2023-07-09T03:40:36;5.40;;;4.90;;
13435;SDS011;6790;49.520;8.504;2023-07-09T03:43:02;6.97;;;5.90;;
13435;SDS011;6790;49.520;8.504;2023-07-09T03:45:33;5.63;;;5.03;;
13435;SDS011;6790;49.520;8.504;2023-07-09T03:48:02;9.10;;;5.43;;
13435;SDS011;6790;49.520;8.504;2023-07-09T03:50:29;6.73;;;5.13;;
13435;SDS011;6790;49.520;8.504;2023-07-09T03:52:55;9.50;;;5.57;;
13435;SDS011;6790;49.520;8.504;2023-07-09T03:55:21;10.37;;;5.80;;
13435;SDS011;6790;49.520;8.504;2023-07-09T03:57:46;7.43;;;5.30;;
13435;SDS011;6790;49.520;8.504;2023-07-09T04:00:12;7.63;;;5.00;;
13435;SDS011;6790;49.520;8.504;2023-07-09T04:02:39;7.00;;;5.50;;
13435;SDS011;6790;49.520;8.504;2023-07-09T04:05:08;7.43;;;5.63;;
13435;SDS011;6790;49.520;8.504;2023-07-09T04:07:35;7.27;;;5.47;;
13435;SDS011;6790;49.520;8.504;2023-07-09T04:10:01;8.57;;;5.63;;
13435;SDS011;6790;49.520;8.504;2023-07-09T04:12:28;6.10;;;5.00;;
13435;SDS011;6790;49.520;8.504;2023-07-09T04:14:53;8.00;;;5.97;;
13435;SDS011;6790;49.520;8.504;2023-07-09T04:17:19;8.03;;;5.67;;
13435;SDS011;6790;49.520;8.504;2023-07-09T04:19:46;7.40;;;5.30;;
13435;SDS011;6790;49.520;8.504;2023-07-09T04:22:12;7.67;;;5.27;;
13435;SDS011;6790;49.520;8.504;2023-07-09T04:24:38;7.83;;;5.10;;
13435;SDS011;6790;49.520;8.504;2023-07-09T04:27:04;7.80;;;5.67;;
13435;SDS011;6790;49.520;8.504;2023-07-09T04:29:30;6.97;;;5.40;;
13435;SDS011;6790;49.520;8.504;2023-07-09T04:32:00;7.57;;;5.60;;
13435;SDS011;6790;49.520;8.504;2023-07-09T04:34:27;8.40;;;5.40;;
13435;SDS011;6790;49.520;8.504;2023-07-09T04:36:53;7.27;;;5.73;;
13435;SDS011;6790;49.520;8.504;2023-07-09T04:39:18;7.63;;;5.50;;
13435;SDS011;6790;49.520;8.504;2023-07-09T04:41:44;7.83;;;6.13;;
13435;SDS011;6790;49.520;8.504;2023-07-09T04:44:10;7.70;;;5.87;;
13435;SDS011;6790;49.520;8.504;2023-07-09T04:46:35;6.65;;;5.95;;
13435;SDS011;6790;49.520;8.504;2023-07-09T04:49:02;8.10;;;5.72;;
13435;SDS011;6790;49.520;8.504;2023-07-09T04:51:28;7.40;;;5.88;;
13435;SDS011;6790;49.520;8.504;2023-07-09T04:53:54;9.38;;;5.68;;
13435;SDS011;6790;49.520;8.504;2023-07-09T04:56:19;8.10;;;5.68;;
13435;SDS011;6790;49.520;8.504;2023-07-09T04:58:45;8.13;;;5.88;;
13435;SDS011;6790;49.520;8.504;2023-07-09T05:01:11;6.93;;;5.38;;
13435;SDS011;6790;49.520;8.504;2023-07-09T05:03:37;7.05;;;6.03;;
13435;SDS011;6790;49.520;8.504;2023-07-09T05:06:03;7.95;;;6.30;;
13435;SDS011;6790;49.520;8.504;2023-07-09T05:08:30;9.23;;;6.18;;
13435;SDS011;6790;49.520;8.504;2023-07-09T05:10:56;10.77;;;6.25;;
13435;SDS011;6790;49.520;8.504;2023-07-09T05:13:23;7.13;;;5.75;;
13435;SDS011;6790;49.520;8.504;2023-07-09T05:15:49;10.00;;;6.20;;
13435;SDS011;6790;49.520;8.504;2023-07-09T05:18:15;8.38;;;6.13;;
13435;SDS011;6790;49.520;8.504;2023-07-09T05:20:42;8.02;;;6.03;;
13435;SDS011;6790;49.520;8.504;2023-07-09T05:23:09;9.23;;;6.13;;
13435;SDS011;6790;49.520;8.504;2023-07-09T05:25:36;12.55;;;6.45;;
13435;SDS011;6790;49.520;8.504;2023-07-09T05:28:02;10.23;;;6.82;;
13435;SDS011;6790;49.520;8.504;2023-07-09T05:30:29;9.55;;;6.15;;
13435;SDS011;6790;49.520;8.504;2023-07-09T05:32:55;9.73;;;6.70;;
13435;SDS011;6790;49.520;8.504;2023-07-09T05:35:23;10.15;;;6.75;;
13435;SDS011;6790;49.520;8.504;2023-07-09T05:37:50;10.40;;;7.07;;
13435;SDS011;6790;49.520;8.504;2023-07-09T05:40:17;8.13;;;6.40;;
13435;SDS011;6790;49.520;8.504;2023-07-09T05:42:43;10.90;;;6.43;;
13435;SDS011;6790;49.520;8.504;2023-07-09T05:45:18;8.95;;;6.80;;
13435;SDS011;6790;49.520;8.504;2023-07-09T05:47:57;12.23;;;7.50;;
13435;SDS011;6790;49.520;8.504;2023-07-09T05:50:34;8.88;;;5.95;;
13435;SDS011;6790;49.520;8.504;2023-07-09T05:53:01;11.18;;;6.47;;
13435;SDS011;6790;49.520;8.504;2023-07-09T05:55:26;8.50;;;6.30;;
13435;SDS011;6790;49.520;8.504;2023-07-09T05:57:53;7.90;;;6.13;;
13435;SDS011;6790;49.520;8.504;2023-07-09T06:00:19;9.40;;;6.88;;
13435;SDS011;6790;49.520;8.504;2023-07-09T06:02:45;8.27;;;6.20;;
13435;SDS011;6790;49.520;8.504;2023-07-09T06:05:10;11.00;;;7.28;;
13435;SDS011;6790;49.520;8.504;2023-07-09T06:07:37;10.50;;;7.60;;
13435;SDS011;6790;49.520;8.504;2023-07-09T06:10:07;10.10;;;7.53;;
13435;SDS011;6790;49.520;8.504;2023-07-09T06:12:34;10.43;;;7.10;;
13435;SDS011;6790;49.520;8.504;2023-07-09T06:15:00;10.98;;;7.63;;
13435;SDS011;6790;49.520;8.504;2023-07-09T06:17:26;10.10;;;6.78;;
13435;SDS011;6790;49.520;8.504;2023-07-09T06:19:52;8.95;;;6.60;;
13435;SDS011;6790;49.520;8.504;2023-07-09T06:22:18;11.25;;;7.85;;
13435;SDS011;6790;49.520;8.504;2023-07-09T06:24:44;13.43;;;7.05;;
13435;SDS011;6790;49.520;8.504;2023-07-09T06:27:10;8.25;;;6.30;;
13435;SDS011;6790;49.520;8.504;2023-07-09T06:29:36;9.10;;;6.85;;
13435;SDS011;6790;49.520;8.504;2023-07-09T06:32:02;11.10;;;7.18;;
13435;SDS011;6790;49.520;8.504;2023-07-09T06:34:28;12.25;;;7.28;;
13435;SDS011;6790;49.520;8.504;2023-07-09T06:36:55;8.70;;;7.05;;
13435;SDS011;6790;49.520;8.504;2023-07-09T06:39:22;9.98;;;6.93;;
13435;SDS011;6790;49.520;8.504;2023-07-09T06:41:48;8.80;;;7.47;;
13435;SDS011;6790;49.520;8.504;2023-07-09T06:44:14;9.55;;;6.80;;
13435;SDS011;6790;49.520;8.504;2023-07-09T06:46:40;8.60;;;5.85;;
13435;SDS011;6790;49.520;8.504;2023-07-09T06:49:06;12.00;;;6.93;;
13435;SDS011;6790;49.520;8.504;2023-07-09T06:51:31;8.52;;;5.85;;
13435;SDS011;6790;49.520;8.504;2023-07-09T06:53:57;9.25;;;6.18;;
13435;SDS011;6790;49.520;8.504;2023-07-09T06:56:23;9.77;;;5.82;;
13435;SDS011;6790;49.520;8.504;2023-07-09T06:58:49;7.82;;;5.82;;
13435;SDS011;6790;49.520;8.504;2023-07-09T07:01:15;8.05;;;5.35;;
13435;SDS011;6790;49.520;8.504;2023-07-09T07:03:41;10.63;;;5.95;;
13435;SDS011;6790;49.520;8.504;2023-07-09T07:06:07;9.13;;;5.95;;
13435;SDS011;6790;49.520;8.504;2023-07-09T07:08:33;8.73;;;5.40;;
13435;SDS011;6790;49.520;8.504;2023-07-09T07:11:00;11.50;;;5.55;;
13435;SDS011;6790;49.520;8.504;2023-07-09T07:13:28;8.25;;;5.75;;
13435;SDS011;6790;49.520;8.504;2023-07-09T07:15:55;9.57;;;5.38;;
13435;SDS011;6790;49.520;8.504;2023-07-09T07:18:20;10.93;;;5.95;;
13435;SDS011;6790;49.520;8.504;2023-07-09T07:20:46;14.05;;;5.18;;
13435;SDS011;6790;49.520;8.504;2023-07-09T07:23:12;11.80;;;5.45;;
13435;SDS011;6790;49.520;8.504;2023-07-09T07:25:41;13.40;;;5.72;;
13435;SDS011;6790;49.520;8.504;2023-07-09T07:28:07;11.18;;;5.43;;
13435;SDS011;6790;49.520;8.504;2023-07-09T07:30:32;8.73;;;5.18;;
13435;SDS011;6790;49.520;8.504;2023-07-09T07:32:58;8.35;;;5.35;;
13435;SDS011;6790;49.520;8.504;2023-07-09T07:35:24;10.30;;;5.32;;
13435;SDS011;6790;49.520;8.504;2023-07-09T07:37:50;12.88;;;5.80;;
13435;SDS011;6790;49.520;8.504;2023-07-09T07:40:15;8.73;;;5.43;;
13435;SDS011;6790;49.520;8.504;2023-07-09T07:42:41;8.00;;;5.30;;
13435;SDS011;6790;49.520;8.504;2023-07-09T07:45:07;11.57;;;5.07;;
13435;SDS011;6790;49.520;8.504;2023-07-09T07:47:33;8.05;;;5.32;;
13435;SDS011;6790;49.520;8.504;2023-07-09T07:49:59;9.48;;;5.55;;
13435;SDS011;6790;49.520;8.504;2023-07-09T07:52:25;8.75;;;5.00;;
13435;SDS011;6790;49.520;8.504;2023-07-09T07:54:52;10.50;;;5.85;;
13435;SDS011;6790;49.520;8.504;2023-07-09T07:57:18;8.70;;;4.90;;
13435;SDS011;6790;49.520;8.504;2023-07-09T07:59:44;9.20;;;5.05;;
13435;SDS011;6790;49.520;8.504;2023-07-09T08:02:11;7.22;;;5.32;;
13435;SDS011;6790;49.520;8.504;2023-07-09T08:04:39;8.13;;;5.13;;
13435;SDS011;6790;49.520;8.504;2023-07-09T08:07:07;8.27;;;5.22;;
13435;SDS011;6790;49.520;8.504;2023-07-09T08:09:34;5.78;;;5.20;;
13435;SDS011;6790;49.520;8.504;2023-07-09T08:12:00;7.97;;;5.18;;
13435;SDS011;6790;49.520;8.504;2023-07-09T08:14:30;7.82;;;5.55;;
13435;SDS011;6790;49.520;8.504;2023-07-09T08:16:55;8.00;;;6.10;;
13435;SDS011;6790;49.520;8.504;2023-07-09T08:19:21;8.65;;;7.80;;
13435;SDS011;6790;49.520;8.504;2023-07-09T08:21:47;6.30;;;5.70;;
13435;SDS011;6790;49.520;8.504;2023-07-09T08:24:13;6.90;;;5.97;;
13435;SDS011;6790;49.520;8.504;2023-07-09T08:26:39;9.82;;;5.47;;
13435;SDS011;6790;49.520;8.504;2023-07-09T08:29:05;6.75;;;5.10;;
13435;SDS011;6790;49.520;8.504;2023-07-09T08:31:31;5.93;;;5.25;;
13435;SDS011;6790;49.520;8.504;2023-07-09T08:33:56;5.85;;;5.13;;
13435;SDS011;6790;49.520;8.504;2023-07-09T08:36:23;7.55;;;5.32;;
13435;SDS011;6790;49.520;8.504;2023-07-09T08:38:48;6.93;;;5.30;;
13435;SDS011;6790;49.520;8.504;2023-07-09T08:46:59;14.93;;;6.82;;
13435;SDS011;6790;49.520;8.504;2023-07-09T08:49:30;8.82;;;5.32;;
13435;SDS011;6790;49.520;8.504;2023-07-09T08:52:12;7.30;;;5.13;;
13435;SDS011;6790;49.520;8.504;2023-07-09T08:55:06;11.52;;;5.25;;
13435;SDS011;6790;49.520;8.504;2023-07-09T08:57:37;8.80;;;5.55;;
13435;SDS011;6790;49.520;8.504;2023-07-09T09:02:58;7.38;;;5.65;;
13435;SDS011;6790;49.520;8.504;2023-07-09T09:05:37;6.20;;;5.00;;
13435;SDS011;6790;49.520;8.504;2023-07-09T09:11:07;6.18;;;4.72;;
13435;SDS011;6790;49.520;8.504;2023-07-09T09:13:42;6.05;;;4.68;;
13435;SDS011;6790;49.520;8.504;2023-07-09T09:16:16;8.07;;;5.05;;
13435;SDS011;6790;49.520;8.504;2023-07-09T09:18:52;8.00;;;5.20;;
13435;SDS011;6790;49.520;8.504;2023-07-09T09:21:25;6.43;;;4.68;;
13435;SDS011;6790;49.520;8.504;2023-07-09T09:23:58;6.10;;;4.78;;
13435;SDS011;6790;49.520;8.504;2023-07-09T09:26:51;7.13;;;4.65;;
13435;SDS011;6790;49.520;8.504;2023-07-09T09:29:23;8.82;;;5.43;;
13435;SDS011;6790;49.520;8.504;2023-07-09T09:31:51;8.10;;;5.18;;
13435;SDS011;6790;49.520;8.504;2023-07-09T09:34:21;10.35;;;4.80;;
13435;SDS011;6790;49.520;8.504;2023-07-09T09:36:52;9.68;;;4.53;;
13435;SDS011;6790;49.520;8.504;2023-07-09T09:39:19;5.28;;;4.53;;
13435;SDS011;6790;49.520;8.504;2023-07-09T09:41:46;5.00;;;4.50;;
13435;SDS011;6790;49.520;8.504;2023-07-09T09:44:24;7.40;;;4.68;;
13435;SDS011;6790;49.520;8.504;2023-07-09T09:46:57;6.18;;;4.38;;
13435;SDS011;6790;49.520;8.504;2023-07-09T09:49:23;5.95;;;5.05;;
13435;SDS011;6790;49.520;8.504;2023-07-09T09:51:49;6.53;;;4.70;;
13435;SDS011;6790;49.520;8.504;2023-07-09T09:54:16;6.75;;;4.28;;
13435;SDS011;6790;49.520;8.504;2023-07-09T09:56:52;6.13;;;4.47;;
13435;SDS011;6790;49.520;8.504;2023-07-09T09:59:30;7.82;;;4.63;;
13435;SDS011;6790;49.520;8.504;2023-07-09T10:01:58;6.22;;;4.88;;
13435;SDS011;6790;49.520;8.504;2023-07-09T10:04:28;7.30;;;4.53;;
13435;SDS011;6790;49.520;8.504;2023-07-09T10:06:58;6.00;;;4.68;;
13435;SDS011;6790;49.520;8.504;2023-07-09T10:14:45;8.70;;;4.45;;
13435;SDS011;6790;49.520;8.504;2023-07-09T10:17:36;7.20;;;4.80;;
13435;SDS011;6790;49.520;8.504;2023-07-09T10:26:02;6.07;;;4.60;;
13435;SDS011;6790;49.520;8.504;2023-07-09T10:31:31;5.63;;;3.80;;
13435;SDS011;6790;49.520;8.504;2023-07-09T10:39:49;6.13;;;4.30;;
13435;SDS011;6790;49.520;8.504;2023-07-09T10:44:55;4.75;;;3.63;;
13435;SDS011;6790;49.520;8.504;2023-07-09T10:47:34;5.45;;;3.92;;
13435;SDS011;6790;49.520;8.504;2023-07-09T10:50:04;7.90;;;4.30;;
13435;SDS011;6790;49.520;8.504;2023-07-09T10:52:37;6.10;;;4.10;;
13435;SDS011;6790;49.520;8.504;2023-07-09T10:55:13;4.55;;;3.80;;
13435;SDS011;6790;49.520;8.504;2023-07-09T10:58:20;11.77;;;4.97;;
13435;SDS011;6790;49.520;8.504;2023-07-09T11:01:17;5.85;;;4.47;;
13435;SDS011;6790;49.520;8.504;2023-07-09T11:03:59;8.85;;;4.72;;
13435;SDS011;6790;49.520;8.504;2023-07-09T11:06:39;4.20;;;3.80;;
13435;SDS011;6790;49.520;8.504;2023-07-09T11:09:12;7.05;;;4.55;;
13435;SDS011;6790;49.520;8.504;2023-07-09T11:12:05;7.13;;;4.50;;
13435;SDS011;6790;49.520;8.504;2023-07-09T11:14:40;6.93;;;5.00;;
13435;SDS011;6790;49.520;8.504;2023-07-09T11:17:21;5.22;;;4.35;;
13435;SDS011;6790;49.520;8.504;2023-07-09T11:19:49;5.53;;;3.97;;
13435;SDS011;6790;49.520;8.504;2023-07-09T11:22:21;4.93;;;4.22;;
13435;SDS011;6790;49.520;8.504;2023-07-09T11:30:24;7.03;;;3.55;;
13435;SDS011;6790;49.520;8.504;2023-07-09T11:32:52;4.30;;;3.90;;
13435;SDS011;6790;49.520;8.504;2023-07-09T11:35:23;5.57;;;3.90;;
13435;SDS011;6790;49.520;8.504;2023-07-09T11:37:53;7.38;;;4.05;;
13435;SDS011;6790;49.520;8.504;2023-07-09T11:40:20;6.70;;;3.78;;
13435;SDS011;6790;49.520;8.504;2023-07-09T11:42:58;5.75;;;3.50;;
13435;SDS011;6790;49.520;8.504;2023-07-09T11:45:26;4.13;;;3.28;;
13435;SDS011;6790;49.520;8.504;2023-07-09T11:50:53;7.30;;;5.30;;
13435;SDS011;6790;49.520;8.504;2023-07-09T11:56:09;4.85;;;3.50;;
13435;SDS011;6790;49.520;8.504;2023-07-09T11:58:35;7.40;;;3.70;;
13435;SDS011;6790;49.520;8.504;2023-07-09T12:01:01;5.18;;;3.65;;
13435;SDS011;6790;49.520;8.504;2023-07-09T12:03:32;8.45;;;3.75;;
13435;SDS011;6790;49.520;8.504;2023-07-09T12:06:02;6.18;;;3.88;;
13435;SDS011;6790;49.520;8.504;2023-07-09T12:08:33;5.22;;;3.83;;
13435;SDS011;6790;49.520;8.504;2023-07-09T12:11:02;5.55;;;3.78;;
13435;SDS011;6790;49.520;8.504;2023-07-09T12:13:28;7.00;;;3.80;;
13435;SDS011;6790;49.520;8.504;2023-07-09T12:16:01;5.25;;;3.60;;
13435;SDS011;6790;49.520;8.504;2023-07-09T12:18:27;4.22;;;3.40;;
13435;SDS011;6790;49.520;8.504;2023-07-09T12:20:55;5.47;;;4.22;;
13435;SDS011;6790;49.520;8.504;2023-07-09T12:25:55;4.40;;;3.67;;
13435;SDS011;6790;49.520;8.504;2023-07-09T12:28:25;4.65;;;3.63;;
13435;SDS011;6790;49.520;8.504;2023-07-09T12:30:53;6.28;;;4.07;;
13435;SDS011;6790;49.520;8.504;2023-07-09T12:33:19;6.80;;;4.30;;
13435;SDS011;6790;49.520;8.504;2023-07-09T12:35:57;5.47;;;3.95;;
13435;SDS011;6790;49.520;8.504;2023-07-09T12:38:27;5.40;;;3.75;;
13435;SDS011;6790;49.520;8.504;2023-07-09T12:40:55;5.82;;;3.60;;
13435;SDS011;6790;49.520;8.504;2023-07-09T12:43:26;5.70;;;3.65;;
13435;SDS011;6790;49.520;8.504;2023-07-09T12:45:56;6.05;;;4.28;;
13435;SDS011;6790;49.520;8.504;2023-07-09T12:48:25;4.07;;;3.67;;
13435;SDS011;6790;49.520;8.504;2023-07-09T12:50:57;6.88;;;3.67;;
13435;SDS011;6790;49.520;8.504;2023-07-09T12:53:26;5.30;;;3.92;;
13435;SDS011;6790;49.520;8.504;2023-07-09T12:55:58;7.22;;;3.90;;
13435;SDS011;6790;49.520;8.504;2023-07-09T12:58:28;7.05;;;4.18;;
13435;SDS011;6790;49.520;8.504;2023-07-09T13:00:57;6.22;;;4.32;;
13435;SDS011;6790;49.520;8.504;2023-07-09T13:03:31;6.45;;;3.88;;
13435;SDS011;6790;49.520;8.504;2023-07-09T13:06:05;9.07;;;4.10;;
13435;SDS011;6790;49.520;8.504;2023-07-09T13:08:59;5.15;;;3.88;;
13435;SDS011;6790;49.520;8.504;2023-07-09T13:11:26;5.30;;;4.03;;
13435;SDS011;6790;49.520;8.504;2023-07-09T13:13:59;4.47;;;3.53;;
13435;SDS011;6790;49.520;8.504;2023-07-09T13:16:30;5.15;;;4.00;;
13435;SDS011;6790;49.520;8.504;2023-07-09T13:19:04;7.75;;;4.07;;
13435;SDS011;6790;49.520;8.504;2023-07-09T13:21:29;5.53;;;4.20;;
13435;SDS011;6790;49.520;8.504;2023-07-09T13:23:55;4.40;;;3.97;;
13435;SDS011;6790;49.520;8.504;2023-07-09T13:26:21;4.85;;;3.95;;
13435;SDS011;6790;49.520;8.504;2023-07-09T13:28:46;5.30;;;3.60;;
13435;SDS011;6790;49.520;8.504;2023-07-09T13:31:13;5.35;;;3.85;;
13435;SDS011;6790;49.520;8.504;2023-07-09T13:33:50;8.13;;;3.80;;
13435;SDS011;6790;49.520;8.504;2023-07-09T13:36:20;6.50;;;3.70;;
13435;SDS011;6790;49.520;8.504;2023-07-09T13:38:45;6.30;;;3.90;;
13435;SDS011;6790;49.520;8.504;2023-07-09T13:41:12;5.60;;;3.58;;
13435;SDS011;6790;49.520;8.504;2023-07-09T13:43:43;6.60;;;4.00;;
13435;SDS011;6790;49.520;8.504;2023-07-09T13:46:11;5.95;;;3.70;;
13435;SDS011;6790;49.520;8.504;2023-07-09T13:48:37;5.13;;;3.50;;
13435;SDS011;6790;49.520;8.504;2023-07-09T13:51:13;6.88;;;3.17;;
13435;SDS011;6790;49.520;8.504;2023-07-09T13:53:43;5.55;;;3.67;;
13435;SDS011;6790;49.520;8.504;2023-07-09T13:56:09;4.38;;;3.30;;
13435;SDS011;6790;49.520;8.504;2023-07-09T13:58:35;6.03;;;3.85;;
13435;SDS011;6790;49.520;8.504;2023-07-09T14:01:05;7.63;;;3.63;;
13435;SDS011;6790;49.520;8.504;2023-07-09T14:03:38;5.20;;;3.55;;
13435;SDS011;6790;49.520;8.504;2023-07-09T14:06:04;4.22;;;3.42;;
13435;SDS011;6790;49.520;8.504;2023-07-09T14:08:33;4.53;;;3.65;;
13435;SDS011;6790;49.520;8.504;2023-07-09T14:10:59;6.80;;;3.78;;
13435;SDS011;6790;49.520;8.504;2023-07-09T14:13:25;4.40;;;3.92;;
13435;SDS011;6790;49.520;8.504;2023-07-09T14:15:51;6.97;;;3.72;;
13435;SDS011;6790;49.520;8.504;2023-07-09T14:18:18;5.63;;;3.65;;
13435;SDS011;6790;49.520;8.504;2023-07-09T14:20:47;3.92;;;3.63;;
13435;SDS011;6790;49.520;8.504;2023-07-09T14:23:16;5.65;;;3.92;;
13435;SDS011;6790;49.520;8.504;2023-07-09T14:25:43;6.88;;;3.67;;
13435;SDS011;6790;49.520;8.504;2023-07-09T14:28:10;8.48;;;3.58;;
13435;SDS011;6790;49.520;8.504;2023-07-09T14:30:42;87.43;;;12.77;;
13435;SDS011;6790;49.520;8.504;2023-07-09T14:33:14;5.97;;;3.75;;
13435;SDS011;6790;49.520;8.504;2023-07-09T14:35:43;4.03;;;3.22;;
13435;SDS011;6790;49.520;8.504;2023-07-09T14:40:50;6.47;;;4.22;;
13435;SDS011;6790;49.520;8.504;2023-07-09T14:43:19;5.68;;;3.88;;
13435;SDS011;6790;49.520;8.504;2023-07-09T14:45:45;7.60;;;3.33;;
13435;SDS011;6790;49.520;8.504;2023-07-09T14:48:13;4.60;;;4.00;;
13435;SDS011;6790;49.520;8.504;2023-07-09T14:50:42;7.20;;;5.45;;
13435;SDS011;6790;49.520;8.504;2023-07-09T14:53:29;7.38;;;3.65;;
13435;SDS011;6790;49.520;8.504;2023-07-09T14:55:54;5.20;;;4.10;;
13435;SDS011;6790;49.520;8.504;2023-07-09T14:58:21;6.07;;;3.97;;
13435;SDS011;6790;49.520;8.504;2023-07-09T15:00:49;8.07;;;4.13;;
13435;SDS011;6790;49.520;8.504;2023-07-09T15:03:18;5.20;;;3.60;;
13435;SDS011;6790;49.520;8.504;2023-07-09T15:05:48;7.07;;;4.00;;
13435;SDS011;6790;49.520;8.504;2023-07-09T15:08:15;13.32;;;10.43;;
13435;SDS011;6790;49.520;8.504;2023-07-09T15:10:44;9.75;;;4.85;;
13435;SDS011;6790;49.520;8.504;2023-07-09T15:13:19;6.18;;;3.63;;
13435;SDS011;6790;49.520;8.504;2023-07-09T15:16:01;5.10;;;3.35;;
13435;SDS011;6790;49.520;8.504;2023-07-09T15:18:28;3.95;;;3.55;;
13435;SDS011;6790;49.520;8.504;2023-07-09T15:20:55;7.25;;;4.43;;
13435;SDS011;6790;49.520;8.504;2023-07-09T15:23:25;7.78;;;3.60;;
13435;SDS011;6790;49.520;8.504;2023-07-09T15:25:53;6.90;;;4.57;;
13435;SDS011;6790;49.520;8.504;2023-07-09T15:28:20;5.32;;;3.67;;
13435;SDS011;6790;49.520;8.504;2023-07-09T15:30:46;6.45;;;4.28;;
13435;SDS011;6790;49.520;8.504;2023-07-09T15:33:13;5.05;;;3.55;;
13435;SDS011;6790;49.520;8.504;2023-07-09T15:35:45;6.53;;;3.85;;
13435;SDS011;6790;49.520;8.504;2023-07-09T15:38:20;4.90;;;3.80;;
13435;SDS011;6790;49.520;8.504;2023-07-09T15:40:54;7.25;;;3.42;;
13435;SDS011;6790;49.520;8.504;2023-07-09T15:43:21;10.68;;;6.28;;
13435;SDS011;6790;49.520;8.504;2023-07-09T15:45:49;6.30;;;4.15;;
13435;SDS011;6790;49.520;8.504;2023-07-09T15:48:25;6.35;;;4.07;;
13435;SDS011;6790;49.520;8.504;2023-07-09T15:50:59;6.38;;;4.00;;
13435;SDS011;6790;49.520;8.504;2023-07-09T15:53:26;5.93;;;4.60;;
13435;SDS011;6790;49.520;8.504;2023-07-09T15:55:54;6.65;;;4.80;;
13435;SDS011;6790;49.520;8.504;2023-07-09T15:58:29;9.45;;;7.13;;
13435;SDS011;6790;49.520;8.504;2023-07-09T16:01:04;8.05;;;4.43;;
13435;SDS011;6790;49.520;8.504;2023-07-09T16:03:33;7.88;;;3.97;;